Weather at Oita Airport

Public forecast

Using degrees Celsius for public forecast. Weather courtesy of forecast.io.

Current aviation weather report (METAR) for Oita Airport

Retrieved 2020/11/29 04:00 UTC (2 minutes ago):

RJFO 290400Z 29010KT 9999 FEW030 SCT045 14/03 Q1023

Aviation forecast (TAF) for Oita Airport

Retrieved 2020-11-29 00:30 UTC (4 hours ago):

TAF RJFO 282305Z 2900/3006 30012KT 9999 FEW030 SCT050 BECMG 2912/2915 25005KT BECMG 2918/2921 32012KT